sensor_id;sensor_type;location;lat;lon;timestamp;temperature;humidity
18317;DHT22;9284;52.298;21.164;2022-10-13T03:16:07;2.20;99.90
18317;DHT22;9284;52.298;21.164;2022-10-13T03:18:35;2.20;99.90
18317;DHT22;9284;52.298;21.164;2022-10-13T03:21:05;2.20;99.90
18317;DHT22;9284;52.298;21.164;2022-10-13T03:23:36;2.20;99.90
18317;DHT22;9284;52.298;21.164;2022-10-13T03:26:04;2.10;99.90
18317;DHT22;9284;52.298;21.164;2022-10-13T03:28:32;2.10;99.90
18317;DHT22;9284;52.298;21.164;2022-10-13T03:31:01;2.10;99.90
18317;DHT22;9284;52.298;21.164;2022-10-13T03:33:31;2.00;99.90
18317;DHT22;9284;52.298;21.164;2022-10-13T03:35:59;2.00;99.90
18317;DHT22;9284;52.298;21.164;2022-10-13T03:38:29;2.00;99.90
18317;DHT22;9284;52.298;21.164;2022-10-13T03:41:03;2.00;99.90
18317;DHT22;9284;52.298;21.164;2022-10-13T03:43:32;1.90;99.90
18317;DHT22;9284;52.298;21.164;2022-10-13T03:46:02;1.90;99.90
18317;DHT22;9284;52.298;21.164;2022-10-13T03:48:33;1.90;99.90
18317;DHT22;9284;52.298;21.164;2022-10-13T03:51:04;2.00;99.90
18317;DHT22;9284;52.298;21.164;2022-10-13T03:53:32;2.00;99.90
18317;DHT22;9284;52.298;21.164;2022-10-13T03:56:02;2.00;99.90
18317;DHT22;9284;52.298;21.164;2022-10-13T03:58:33;2.00;99.90
18317;DHT22;9284;52.298;21.164;2022-10-13T04:01:02;2.00;99.90
18317;DHT22;9284;52.298;21.164;2022-10-13T04:03:33;1.90;99.90
18317;DHT22;9284;52.298;21.164;2022-10-13T04:06:02;1.90;99.90
18317;DHT22;9284;52.298;21.164;2022-10-13T04:08:32;1.90;99.90
18317;DHT22;9284;52.298;21.164;2022-10-13T04:11:03;2.00;99.90
18317;DHT22;9284;52.298;21.164;2022-10-13T04:13:32;1.90;99.90
18317;DHT22;9284;52.298;21.164;2022-10-13T04:16:01;1.90;99.90
18317;DHT22;9284;52.298;21.164;2022-10-13T04:18:32;1.80;99.90
18317;DHT22;9284;52.298;21.164;2022-10-13T04:21:00;1.80;99.90
18317;DHT22;9284;52.298;21.164;2022-10-13T04:23:29;1.80;99.90
18317;DHT22;9284;52.298;21.164;2022-10-13T04:25:57;1.80;99.90
18317;DHT22;9284;52.298;21.164;2022-10-13T04:28:25;1.80;99.90
18317;DHT22;9284;52.298;21.164;2022-10-13T04:30:53;1.70;99.90
18317;DHT22;9284;52.298;21.164;2022-10-13T04:33:22;1.70;99.90
18317;DHT22;9284;52.298;21.164;2022-10-13T04:35:52;1.70;99.90
18317;DHT22;9284;52.298;21.164;2022-10-13T04:38:20;1.70;99.90
18317;DHT22;9284;52.298;21.164;2022-10-13T04:40:49;1.70;99.90
18317;DHT22;9284;52.298;21.164;2022-10-13T04:43:17;1.70;99.90
18317;DHT22;9284;52.298;21.164;2022-10-13T04:45:47;1.70;99.90
18317;DHT22;9284;52.298;21.164;2022-10-13T04:48:15;1.80;99.90
18317;DHT22;9284;52.298;21.164;2022-10-13T04:50:44;1.70;99.90
18317;DHT22;9284;52.298;21.164;2022-10-13T04:53:13;1.70;99.90
18317;DHT22;9284;52.298;21.164;2022-10-13T04:55:45;1.60;99.90
18317;DHT22;9284;52.298;21.164;2022-10-13T04:58:13;1.60;99.90
18317;DHT22;9284;52.298;21.164;2022-10-13T05:00:44;1.60;99.90
18317;DHT22;9284;52.298;21.164;2022-10-13T05:03:13;1.60;99.90
18317;DHT22;9284;52.298;21.164;2022-10-13T05:05:41;1.50;99.90
18317;DHT22;9284;52.298;21.164;2022-10-13T05:08:10;1.70;99.90
18317;DHT22;9284;52.298;21.164;2022-10-13T05:10:39;1.60;99.90
18317;DHT22;9284;52.298;21.164;2022-10-13T05:13:08;1.50;99.90
18317;DHT22;9284;52.298;21.164;2022-10-13T05:15:37;1.60;99.90
18317;DHT22;9284;52.298;21.164;2022-10-13T05:18:06;1.60;99.90
18317;DHT22;9284;52.298;21.164;2022-10-13T05:20:34;1.60;99.90
18317;DHT22;9284;52.298;21.164;2022-10-13T05:23:02;1.70;99.90
18317;DHT22;9284;52.298;21.164;2022-10-13T05:25:31;1.70;99.90
18317;DHT22;9284;52.298;21.164;2022-10-13T05:28:03;1.70;99.90
18317;DHT22;9284;52.298;21.164;2022-10-13T05:30:31;1.70;99.90
18317;DHT22;9284;52.298;21.164;2022-10-13T05:33:00;1.70;99.90
18317;DHT22;9284;52.298;21.164;2022-10-13T05:35:29;1.70;99.90
18317;DHT22;9284;52.298;21.164;2022-10-13T05:37:59;1.80;99.90
18317;DHT22;9284;52.298;21.164;2022-10-13T05:40:29;1.80;99.90
18317;DHT22;9284;52.298;21.164;2022-10-13T05:42:59;1.80;99.90
18317;DHT22;9284;52.298;21.164;2022-10-13T05:45:32;1.90;99.90
18317;DHT22;9284;52.298;21.164;2022-10-13T05:48:01;2.00;99.90
18317;DHT22;9284;52.298;21.164;2022-10-13T05:50:29;2.00;99.90
18317;DHT22;9284;52.298;21.164;2022-10-13T05:52:58;2.00;99.90
18317;DHT22;9284;52.298;21.164;2022-10-13T05:55:26;2.10;99.90
18317;DHT22;9284;52.298;21.164;2022-10-13T05:57:54;2.10;99.90
18317;DHT22;9284;52.298;21.164;2022-10-13T06:00:23;2.20;99.90
18317;DHT22;9284;52.298;21.164;2022-10-13T06:03:01;2.20;99.90
18317;DHT22;9284;52.298;21.164;2022-10-13T06:05:31;2.30;99.90
18317;DHT22;9284;52.298;21.164;2022-10-13T06:08:00;2.40;99.90
18317;DHT22;9284;52.298;21.164;2022-10-13T06:10:28;2.50;99.90
18317;DHT22;9284;52.298;21.164;2022-10-13T06:12:57;2.50;99.90
18317;DHT22;9284;52.298;21.164;2022-10-13T06:15:25;2.60;99.90
18317;DHT22;9284;52.298;21.164;2022-10-13T06:17:56;2.70;99.90
18317;DHT22;9284;52.298;21.164;2022-10-13T06:20:25;2.80;99.90
18317;DHT22;9284;52.298;21.164;2022-10-13T06:22:54;2.90;99.90
18317;DHT22;9284;52.298;21.164;2022-10-13T06:25:22;3.00;99.90
18317;DHT22;9284;52.298;21.164;2022-10-13T06:27:51;3.10;99.90
18317;DHT22;9284;52.298;21.164;2022-10-13T06:30:19;3.20;99.90
18317;DHT22;9284;52.298;21.164;2022-10-13T06:32:47;3.40;99.90
18317;DHT22;9284;52.298;21.164;2022-10-13T06:35:17;4.00;99.90
18317;DHT22;9284;52.298;21.164;2022-10-13T06:37:45;4.50;99.90
18317;DHT22;9284;52.298;21.164;2022-10-13T06:40:15;5.60;99.90
18317;DHT22;9284;52.298;21.164;2022-10-13T06:42:48;6.30;21.70
18317;DHT22;9284;52.298;21.164;2022-10-13T06:45:18;7.00;99.90
18317;DHT22;9284;52.298;21.164;2022-10-13T06:47:47;7.70;1.00
18317;DHT22;9284;52.298;21.164;2022-10-13T06:50:16;8.00;42.60
18317;DHT22;9284;52.298;21.164;2022-10-13T06:52:45;8.40;1.00
18317;DHT22;9284;52.298;21.164;2022-10-13T06:55:13;9.00;99.90
18317;DHT22;9284;52.298;21.164;2022-10-13T06:57:41;9.50;1.00
18317;DHT22;9284;52.298;21.164;2022-10-13T07:00:10;10.10;99.90
18317;DHT22;9284;52.298;21.164;2022-10-13T07:02:39;10.70;1.00
18317;DHT22;9284;52.298;21.164;2022-10-13T07:05:08;11.00;99.90
18317;DHT22;9284;52.298;21.164;2022-10-13T07:07:38;11.40;1.00
18317;DHT22;9284;52.298;21.164;2022-10-13T07:10:06;11.80;1.00
18317;DHT22;9284;52.298;21.164;2022-10-13T07:12:35;12.20;1.00
18317;DHT22;9284;52.298;21.164;2022-10-13T07:15:03;12.20;11.90
18317;DHT22;9284;52.298;21.164;2022-10-13T07:17:32;11.80;99.90
18317;DHT22;9284;52.298;21.164;2022-10-13T07:20:00;12.10;1.00
18317;DHT22;9284;52.298;21.164;2022-10-13T07:22:33;12.00;99.90
18317;DHT22;9284;52.298;21.164;2022-10-13T07:25:03;12.30;99.90
18317;DHT22;9284;52.298;21.164;2022-10-13T07:27:31;12.40;1.00
18317;DHT22;9284;52.298;21.164;2022-10-13T07:30:00;12.60;99.90
18317;DHT22;9284;52.298;21.164;2022-10-13T07:32:30;12.10;99.90
18317;DHT22;9284;52.298;21.164;2022-10-13T07:35:02;12.00;1.00
18317;DHT22;9284;52.298;21.164;2022-10-13T07:37:30;11.90;99.90
18317;DHT22;9284;52.298;21.164;2022-10-13T07:39:58;11.80;1.00
18317;DHT22;9284;52.298;21.164;2022-10-13T07:42:29;11.60;99.90
18317;DHT22;9284;52.298;21.164;2022-10-13T07:44:58;11.50;99.90
18317;DHT22;9284;52.298;21.164;2022-10-13T07:47:27;10.90;1.00
18317;DHT22;9284;52.298;21.164;2022-10-13T07:49:56;10.80;1.00
18317;DHT22;9284;52.298;21.164;2022-10-13T07:52:24;10.80;99.90
18317;DHT22;9284;52.298;21.164;2022-10-13T07:54:52;10.60;1.00
18317;DHT22;9284;52.298;21.164;2022-10-13T07:57:25;10.60;76.20
18317;DHT22;9284;52.298;21.164;2022-10-13T07:59:55;10.40;1.00
18317;DHT22;9284;52.298;21.164;2022-10-13T08:02:23;10.50;1.00
18317;DHT22;9284;52.298;21.164;2022-10-13T08:04:52;10.50;99.90
18317;DHT22;9284;52.298;21.164;2022-10-13T08:07:20;10.50;1.00
18317;DHT22;9284;52.298;21.164;2022-10-13T08:09:49;10.60;1.00
18317;DHT22;9284;52.298;21.164;2022-10-13T08:12:17;10.80;99.90
18317;DHT22;9284;52.298;21.164;2022-10-13T08:14:49;10.90;99.90
18317;DHT22;9284;52.298;21.164;2022-10-13T08:17:18;11.00;1.00
18317;DHT22;9284;52.298;21.164;2022-10-13T08:19:49;11.10;1.00
18317;DHT22;9284;52.298;21.164;2022-10-13T08:22:18;11.10;99.90
18317;DHT22;9284;52.298;21.164;2022-10-13T08:24:53;11.20;1.00
18317;DHT22;9284;52.298;21.164;2022-10-13T08:27:24;11.20;99.90
18317;DHT22;9284;52.298;21.164;2022-10-13T08:30:13;11.30;99.90
18317;DHT22;9284;52.298;21.164;2022-10-13T08:32:42;11.30;73.90
18317;DHT22;9284;52.298;21.164;2022-10-13T08:35:12;11.40;99.90
18317;DHT22;9284;52.298;21.164;2022-10-13T08:37:40;11.50;99.90
18317;DHT22;9284;52.298;21.164;2022-10-13T08:40:11;11.60;99.90
18317;DHT22;9284;52.298;21.164;2022-10-13T08:42:42;11.80;1.00
18317;DHT22;9284;52.298;21.164;2022-10-13T08:45:17;12.00;1.00
18317;DHT22;9284;52.298;21.164;2022-10-13T08:48:11;12.00;1.00
18317;DHT22;9284;52.298;21.164;2022-10-13T08:50:44;12.20;38.10
18317;DHT22;9284;52.298;21.164;2022-10-13T08:53:18;12.40;1.00
18317;DHT22;9284;52.298;21.164;2022-10-13T08:55:51;12.60;99.90
18317;DHT22;9284;52.298;21.164;2022-10-13T08:58:25;12.60;66.70
18317;DHT22;9284;52.298;21.164;2022-10-13T09:01:00;12.70;28.80
18317;DHT22;9284;52.298;21.164;2022-10-13T09:03:43;12.70;99.90
18317;DHT22;9284;52.298;21.164;2022-10-13T09:06:19;12.80;1.00
18317;DHT22;9284;52.298;21.164;2022-10-13T09:08:56;12.70;99.90
18317;DHT22;9284;52.298;21.164;2022-10-13T09:11:26;13.00;1.00
18317;DHT22;9284;52.298;21.164;2022-10-13T09:13:56;13.00;1.00
18317;DHT22;9284;52.298;21.164;2022-10-13T09:16:27;13.00;99.90
18317;DHT22;9284;52.298;21.164;2022-10-13T09:19:12;13.10;1.00
18317;DHT22;9284;52.298;21.164;2022-10-13T09:21:40;13.20;99.90
18317;DHT22;9284;52.298;21.164;2022-10-13T09:24:13;13.30;99.90
18317;DHT22;9284;52.298;21.164;2022-10-13T09:26:44;13.20;99.90
18317;DHT22;9284;52.298;21.164;2022-10-13T09:29:16;13.30;99.90
18317;DHT22;9284;52.298;21.164;2022-10-13T09:31:45;13.40;99.90
18317;DHT22;9284;52.298;21.164;2022-10-13T09:34:22;13.50;99.90
18317;DHT22;9284;52.298;21.164;2022-10-13T09:36:58;13.70;99.90
18317;DHT22;9284;52.298;21.164;2022-10-13T09:39:28;13.80;99.90
18317;DHT22;9284;52.298;21.164;2022-10-13T09:42:19;13.80;99.90
18317;DHT22;9284;52.298;21.164;2022-10-13T09:44:56;13.70;99.90
18317;DHT22;9284;52.298;21.164;2022-10-13T09:47:28;13.70;99.90
18317;DHT22;9284;52.298;21.164;2022-10-13T09:50:00;13.80;99.90
18317;DHT22;9284;52.298;21.164;2022-10-13T09:52:33;13.80;99.90
18317;DHT22;9284;52.298;21.164;2022-10-13T09:55:20;13.80;99.50
18317;DHT22;9284;52.298;21.164;2022-10-13T09:58:03;13.90;99.90
18317;DHT22;9284;52.298;21.164;2022-10-13T10:00:33;14.00;63.90
18317;DHT22;9284;52.298;21.164;2022-10-13T10:03:07;14.20;64.70
18317;DHT22;9284;52.298;21.164;2022-10-13T10:05:43;14.30;69.10
18317;DHT22;9284;52.298;21.164;2022-10-13T10:08:15;14.40;69.90
18317;DHT22;9284;52.298;21.164;2022-10-13T10:10:55;14.40;83.40
18317;DHT22;9284;52.298;21.164;2022-10-13T10:13:23;14.50;90.90
18317;DHT22;9284;52.298;21.164;2022-10-13T10:15:55;14.50;54.90
18317;DHT22;9284;52.298;21.164;2022-10-13T10:18:32;14.50;89.50
18317;DHT22;9284;52.298;21.164;2022-10-13T10:21:07;14.60;91.90
18317;DHT22;9284;52.298;21.164;2022-10-13T10:23:45;14.70;33.70
18317;DHT22;9284;52.298;21.164;2022-10-13T10:26:17;14.60;67.70
18317;DHT22;9284;52.298;21.164;2022-10-13T10:29:05;14.70;66.60
18317;DHT22;9284;52.298;21.164;2022-10-13T10:31:49;14.80;42.70
18317;DHT22;9284;52.298;21.164;2022-10-13T10:34:30;14.60;23.30
18317;DHT22;9284;52.298;21.164;2022-10-13T10:37:13;14.70;23.30
18317;DHT22;9284;52.298;21.164;2022-10-13T10:39:55;14.70;40.20
18317;DHT22;9284;52.298;21.164;2022-10-13T10:42:59;14.80;33.00
18317;DHT22;9284;52.298;21.164;2022-10-13T10:45:33;14.80;49.20
18317;DHT22;9284;52.298;21.164;2022-10-13T10:48:05;15.00;22.00
18317;DHT22;9284;52.298;21.164;2022-10-13T10:50:34;15.20;5.90
18317;DHT22;9284;52.298;21.164;2022-10-13T10:53:07;15.60;1.00
18317;DHT22;9284;52.298;21.164;2022-10-13T10:55:46;16.00;1.00
18317;DHT22;9284;52.298;21.164;2022-10-13T10:58:23;16.20;1.00
18317;DHT22;9284;52.298;21.164;2022-10-13T11:01:01;16.20;4.90
18317;DHT22;9284;52.298;21.164;2022-10-13T11:03:46;16.30;77.00
18317;DHT22;9284;52.298;21.164;2022-10-13T11:06:34;16.30;96.20
18317;DHT22;9284;52.298;21.164;2022-10-13T11:09:05;16.00;90.80
18317;DHT22;9284;52.298;21.164;2022-10-13T11:11:36;16.00;89.70
18317;DHT22;9284;52.298;21.164;2022-10-13T11:14:27;16.40;91.90
18317;DHT22;9284;52.298;21.164;2022-10-13T11:17:17;16.40;91.70
18317;DHT22;9284;52.298;21.164;2022-10-13T11:19:47;16.60;90.90
18317;DHT22;9284;52.298;21.164;2022-10-13T11:22:21;16.20;91.70
18317;DHT22;9284;52.298;21.164;2022-10-13T11:25:34;16.10;96.90
18317;DHT22;9284;52.298;21.164;2022-10-13T11:28:44;16.10;99.90
18317;DHT22;9284;52.298;21.164;2022-10-13T11:31:28;16.10;90.50
18317;DHT22;9284;52.298;21.164;2022-10-13T11:34:02;16.10;91.90
18317;DHT22;9284;52.298;21.164;2022-10-13T11:36:53;16.00;93.30
18317;DHT22;9284;52.298;21.164;2022-10-13T11:42:55;15.60;94.60
18317;DHT22;9284;52.298;21.164;2022-10-13T11:46:02;15.50;94.90
18317;DHT22;9284;52.298;21.164;2022-10-13T11:52:01;15.50;98.90
18317;DHT22;9284;52.298;21.164;2022-10-13T11:54:35;15.40;96.70
18317;DHT22;9284;52.298;21.164;2022-10-13T11:57:17;15.40;97.80
18317;DHT22;9284;52.298;21.164;2022-10-13T11:59:49;15.30;94.70
18317;DHT22;9284;52.298;21.164;2022-10-13T12:02:46;15.30;96.00
18317;DHT22;9284;52.298;21.164;2022-10-13T12:05:21;15.20;97.40
18317;DHT22;9284;52.298;21.164;2022-10-13T12:07:51;15.20;99.90
18317;DHT22;9284;52.298;21.164;2022-10-13T12:10:26;15.20;95.20
18317;DHT22;9284;52.298;21.164;2022-10-13T12:12:57;15.20;96.90
18317;DHT22;9284;52.298;21.164;2022-10-13T12:15:42;15.10;99.90
18317;DHT22;9284;52.298;21.164;2022-10-13T12:18:21;15.20;97.70
18317;DHT22;9284;52.298;21.164;2022-10-13T12:20:51;15.30;98.70
18317;DHT22;9284;52.298;21.164;2022-10-13T12:23:20;15.30;97.90
18317;DHT22;9284;52.298;21.164;2022-10-13T12:25:49;15.20;94.40
18317;DHT22;9284;52.298;21.164;2022-10-13T12:28:25;15.20;97.50
18317;DHT22;9284;52.298;21.164;2022-10-13T12:30:57;15.20;98.00
18317;DHT22;9284;52.298;21.164;2022-10-13T12:33:29;15.20;99.00
18317;DHT22;9284;52.298;21.164;2022-10-13T12:36:15;15.10;93.80
18317;DHT22;9284;52.298;21.164;2022-10-13T12:38:48;15.10;94.40
18317;DHT22;9284;52.298;21.164;2022-10-13T12:41:18;15.10;91.30
18317;DHT22;9284;52.298;21.164;2022-10-13T12:43:49;15.10;94.30
18317;DHT22;9284;52.298;21.164;2022-10-13T12:46:39;14.90;93.60
18317;DHT22;9284;52.298;21.164;2022-10-13T12:49:13;14.90;98.60
18317;DHT22;9284;52.298;21.164;2022-10-13T12:51:43;14.90;99.90
18317;DHT22;9284;52.298;21.164;2022-10-13T12:54:22;14.90;99.40
18317;DHT22;9284;52.298;21.164;2022-10-13T12:56:55;14.90;96.30
18317;DHT22;9284;52.298;21.164;2022-10-13T12:59:25;14.90;87.90
18317;DHT22;9284;52.298;21.164;2022-10-13T13:01:57;14.90;77.70
18317;DHT22;9284;52.298;21.164;2022-10-13T13:04:45;14.80;87.90
18317;DHT22;9284;52.298;21.164;2022-10-13T13:07:28;14.80;80.40
18317;DHT22;9284;52.298;21.164;2022-10-13T13:10:00;14.80;83.00
18317;DHT22;9284;52.298;21.164;2022-10-13T13:12:29;14.80;82.10
18317;DHT22;9284;52.298;21.164;2022-10-13T13:15:16;14.80;85.20
18317;DHT22;9284;52.298;21.164;2022-10-13T13:17:46;14.70;83.30
18317;DHT22;9284;52.298;21.164;2022-10-13T13:20:31;14.70;87.40
18317;DHT22;9284;52.298;21.164;2022-10-13T13:23:03;14.60;90.10
18317;DHT22;9284;52.298;21.164;2022-10-13T13:25:31;14.60;86.00
18317;DHT22;9284;52.298;21.164;2022-10-13T13:28:02;14.60;93.90
18317;DHT22;9284;52.298;21.164;2022-10-13T13:30:31;14.60;92.60
18317;DHT22;9284;52.298;21.164;2022-10-13T13:33:01;14.50;99.90
18317;DHT22;9284;52.298;21.164;2022-10-13T13:35:29;14.50;99.90
18317;DHT22;9284;52.298;21.164;2022-10-13T13:37:58;14.50;99.90
18317;DHT22;9284;52.298;21.164;2022-10-13T13:40:27;14.40;99.90
18317;DHT22;9284;52.298;21.164;2022-10-13T13:42:55;14.40;99.90
18317;DHT22;9284;52.298;21.164;2022-10-13T13:45:32;14.40;99.90
18317;DHT22;9284;52.298;21.164;2022-10-13T13:48:02;14.40;99.90
18317;DHT22;9284;52.298;21.164;2022-10-13T13:50:33;14.40;99.90
18317;DHT22;9284;52.298;21.164;2022-10-13T13:53:02;14.30;99.90
18317;DHT22;9284;52.298;21.164;2022-10-13T13:55:30;14.30;99.90
18317;DHT22;9284;52.298;21.164;2022-10-13T13:57:59;14.20;99.90
18317;DHT22;9284;52.298;21.164;2022-10-13T14:00:27;14.20;99.90
18317;DHT22;9284;52.298;21.164;2022-10-13T14:02:56;14.30;99.90
18317;DHT22;9284;52.298;21.164;2022-10-13T14:05:26;14.30;99.90
18317;DHT22;9284;52.298;21.164;2022-10-13T14:07:55;14.30;99.90
18317;DHT22;9284;52.298;21.164;2022-10-13T14:10:24;14.20;99.90
18317;DHT22;9284;52.298;21.164;2022-10-13T14:12:53;14.20;99.90
18317;DHT22;9284;52.298;21.164;2022-10-13T14:15:21;14.20;99.90
18317;DHT22;9284;52.298;21.164;2022-10-13T14:17:54;14.20;99.90
18317;DHT22;9284;52.298;21.164;2022-10-13T14:20:23;14.20;99.90
18317;DHT22;9284;52.298;21.164;2022-10-13T14:22:53;14.20;99.90
18317;DHT22;9284;52.298;21.164;2022-10-13T14:25:21;14.20;99.90
18317;DHT22;9284;52.298;21.164;2022-10-13T14:27:49;14.10;99.90
18317;DHT22;9284;52.298;21.164;2022-10-13T14:30:17;14.00;99.90
18317;DHT22;9284;52.298;21.164;2022-10-13T14:32:46;14.00;99.90
18317;DHT22;9284;52.298;21.164;2022-10-13T14:35:14;14.00;99.90
18317;DHT22;9284;52.298;21.164;2022-10-13T14:37:42;13.90;99.90
18317;DHT22;9284;52.298;21.164;2022-10-13T14:40:12;13.90;99.90
18317;DHT22;9284;52.298;21.164;2022-10-13T14:42:41;13.80;99.90
18317;DHT22;9284;52.298;21.164;2022-10-13T14:45:14;13.80;99.90
18317;DHT22;9284;52.298;21.164;2022-10-13T14:47:42;13.70;99.90
18317;DHT22;9284;52.298;21.164;2022-10-13T14:50:11;13.60;99.90
18317;DHT22;9284;52.298;21.164;2022-10-13T14:52:39;13.50;99.90
18317;DHT22;9284;52.298;21.164;2022-10-13T14:55:08;13.40;99.90
18317;DHT22;9284;52.298;21.164;2022-10-13T14:57:39;13.30;99.90
18317;DHT22;9284;52.298;21.164;2022-10-13T15:00:08;13.20;1.00
18317;DHT22;9284;52.298;21.164;2022-10-13T15:02:37;13.00;84.80
18317;DHT22;9284;52.298;21.164;2022-10-13T15:05:06;13.00;1.00
18317;DHT22;9284;52.298;21.164;2022-10-13T15:07:34;12.80;99.90
18317;DHT22;9284;52.298;21.164;2022-10-13T15:10:07;12.70;99.90
18317;DHT22;9284;52.298;21.164;2022-10-13T15:12:35;12.70;1.00
18317;DHT22;9284;52.298;21.164;2022-10-13T15:15:06;12.50;1.00
18317;DHT22;9284;52.298;21.164;2022-10-13T15:17:35;12.30;99.90
18317;DHT22;9284;52.298;21.164;2022-10-13T15:20:05;12.10;99.90
18317;DHT22;9284;52.298;21.164;2022-10-13T15:22:33;11.90;1.00
18317;DHT22;9284;52.298;21.164;2022-10-13T15:25:02;11.70;57.00
18317;DHT22;9284;52.298;21.164;2022-10-13T15:27:33;11.50;1.00
18317;DHT22;9284;52.298;21.164;2022-10-13T15:30:10;11.30;99.90
18317;DHT22;9284;52.298;21.164;2022-10-13T15:32:39;11.10;1.00
18317;DHT22;9284;52.298;21.164;2022-10-13T15:35:08;11.00;99.90
18317;DHT22;9284;52.298;21.164;2022-10-13T15:37:39;10.80;1.00
18317;DHT22;9284;52.298;21.164;2022-10-13T15:40:08;10.70;99.90
18317;DHT22;9284;52.298;21.164;2022-10-13T15:42:37;10.50;1.00
18317;DHT22;9284;52.298;21.164;2022-10-13T15:45:06;10.40;1.00
18317;DHT22;9284;52.298;21.164;2022-10-13T15:47:39;10.20;99.90
18317;DHT22;9284;52.298;21.164;2022-10-13T15:50:08;10.10;1.00
18317;DHT22;9284;52.298;21.164;2022-10-13T15:52:37;10.00;1.00
18317;DHT22;9284;52.298;21.164;2022-10-13T15:55:07;9.80;1.00
18317;DHT22;9284;52.298;21.164;2022-10-13T15:57:35;9.70;99.90
18317;DHT22;9284;52.298;21.164;2022-10-13T16:00:05;9.60;99.90
18317;DHT22;9284;52.298;21.164;2022-10-13T16:02:39;9.40;1.00
18317;DHT22;9284;52.298;21.164;2022-10-13T16:05:09;9.30;1.00
18317;DHT22;9284;52.298;21.164;2022-10-13T16:07:38;9.20;99.90
18317;DHT22;9284;52.298;21.164;2022-10-13T16:10:08;9.10;99.90
18317;DHT22;9284;52.298;21.164;2022-10-13T16:12:37;9.00;1.00
18317;DHT22;9284;52.298;21.164;2022-10-13T16:15:06;8.90;1.00
18317;DHT22;9284;52.298;21.164;2022-10-13T16:17:35;8.70;1.00
18317;DHT22;9284;52.298;21.164;2022-10-13T16:20:07;8.70;1.00
18317;DHT22;9284;52.298;21.164;2022-10-13T16:22:35;8.50;1.00
18317;DHT22;9284;52.298;21.164;2022-10-13T16:25:05;8.50;99.90
18317;DHT22;9284;52.298;21.164;2022-10-13T16:27:33;8.40;98.80
18317;DHT22;9284;52.298;21.164;2022-10-13T16:30:06;8.30;99.90
18317;DHT22;9284;52.298;21.164;2022-10-13T16:32:37;8.20;99.90
18317;DHT22;9284;52.298;21.164;2022-10-13T16:35:08;8.10;99.90
18317;DHT22;9284;52.298;21.164;2022-10-13T16:37:37;8.10;99.90
18317;DHT22;9284;52.298;21.164;2022-10-13T16:40:06;8.00;99.90
18317;DHT22;9284;52.298;21.164;2022-10-13T16:42:34;7.90;99.90
18317;DHT22;9284;52.298;21.164;2022-10-13T16:45:03;7.80;1.00
18317;DHT22;9284;52.298;21.164;2022-10-13T16:47:32;7.70;1.00
18317;DHT22;9284;52.298;21.164;2022-10-13T16:50:00;7.70;1.00
18317;DHT22;9284;52.298;21.164;2022-10-13T16:52:33;7.60;1.00
18317;DHT22;9284;52.298;21.164;2022-10-13T16:55:02;7.60;1.00
18317;DHT22;9284;52.298;21.164;2022-10-13T16:57:31;7.50;1.00
18317;DHT22;9284;52.298;21.164;2022-10-13T16:59:59;7.40;1.00
18317;DHT22;9284;52.298;21.164;2022-10-13T17:02:28;7.40;1.00
18317;DHT22;9284;52.298;21.164;2022-10-13T17:04:56;7.40;1.00
18317;DHT22;9284;52.298;21.164;2022-10-13T17:07:24;7.30;1.00
18317;DHT22;9284;52.298;21.164;2022-10-13T17:09:54;7.30;1.00
18317;DHT22;9284;52.298;21.164;2022-10-13T17:12:22;7.20;1.00
18317;DHT22;9284;52.298;21.164;2022-10-13T17:14:51;7.20;1.00
18317;DHT22;9284;52.298;21.164;2022-10-13T17:17:19;7.10;1.00
18317;DHT22;9284;52.298;21.164;2022-10-13T17:19:48;7.10;1.00
18317;DHT22;9284;52.298;21.164;2022-10-13T17:22:16;7.10;1.00
18317;DHT22;9284;52.298;21.164;2022-10-13T17:24:45;7.00;1.00
18317;DHT22;9284;52.298;21.164;2022-10-13T17:27:15;7.00;1.00
18317;DHT22;9284;52.298;21.164;2022-10-13T17:29:44;7.00;1.00
18317;DHT22;9284;52.298;21.164;2022-10-13T17:32:12;6.90;1.00
18317;DHT22;9284;52.298;21.164;2022-10-13T17:34:41;6.90;1.00
18317;DHT22;9284;52.298;21.164;2022-10-13T17:37:12;6.80;1.00
18317;DHT22;9284;52.298;21.164;2022-10-13T17:39:40;6.80;1.00
18317;DHT22;9284;52.298;21.164;2022-10-13T17:42:09;6.70;1.00
18317;DHT22;9284;52.298;21.164;2022-10-13T17:44:38;6.70;1.00
18317;DHT22;9284;52.298;21.164;2022-10-13T17:47:10;6.70;1.00
18317;DHT22;9284;52.298;21.164;2022-10-13T17:49:38;6.60;1.00
18317;DHT22;9284;52.298;21.164;2022-10-13T17:52:07;6.60;1.00
18317;DHT22;9284;52.298;21.164;2022-10-13T17:54:36;6.50;1.00
18317;DHT22;9284;52.298;21.164;2022-10-13T17:57:04;6.40;1.00
18317;DHT22;9284;52.298;21.164;2022-10-13T17:59:32;6.40;1.00
18317;DHT22;9284;52.298;21.164;2022-10-13T18:02:02;6.40;1.00
18317;DHT22;9284;52.298;21.164;2022-10-13T18:04:30;6.30;1.00
18317;DHT22;9284;52.298;21.164;2022-10-13T18:06:59;6.30;1.00
18317;DHT22;9284;52.298;21.164;2022-10-13T18:09:27;6.30;1.00
18317;DHT22;9284;52.298;21.164;2022-10-13T18:11:55;6.20;1.00
18317;DHT22;9284;52.298;21.164;2022-10-13T18:14:24;6.20;1.00
18317;DHT22;9284;52.298;21.164;2022-10-13T18:16:53;6.10;1.00
18317;DHT22;9284;52.298;21.164;2022-10-13T18:19:23;6.10;1.00
18317;DHT22;9284;52.298;21.164;2022-10-13T18:21:52;6.10;1.00
18317;DHT22;9284;52.298;21.164;2022-10-13T18:24:20;6.00;1.00
18317;DHT22;9284;52.298;21.164;2022-10-13T18:26:51;6.00;1.00
18317;DHT22;9284;52.298;21.164;2022-10-13T18:29:22;5.90;1.00
18317;DHT22;9284;52.298;21.164;2022-10-13T18:31:53;5.90;1.00
18317;DHT22;9284;52.298;21.164;2022-10-13T18:34:23;5.80;1.00
18317;DHT22;9284;52.298;21.164;2022-10-13T18:36:52;5.80;1.00
18317;DHT22;9284;52.298;21.164;2022-10-13T18:39:23;5.80;1.00
18317;DHT22;9284;52.298;21.164;2022-10-13T18:41:53;5.70;1.00
18317;DHT22;9284;52.298;21.164;2022-10-13T18:44:27;5.70;1.00
18317;DHT22;9284;52.298;21.164;2022-10-13T18:46:55;5.70;1.00
18317;DHT22;9284;52.298;21.164;2022-10-13T18:49:25;5.60;1.00
18317;DHT22;9284;52.298;21.164;2022-10-13T18:51:58;5.60;1.00
18317;DHT22;9284;52.298;21.164;2022-10-13T18:54:27;5.50;6.20
18317;DHT22;9284;52.298;21.164;2022-10-13T18:56:56;5.50;26.20
18317;DHT22;9284;52.298;21.164;2022-10-13T18:59:24;5.50;35.80
18317;DHT22;9284;52.298;21.164;2022-10-13T19:01:53;5.50;47.30
18317;DHT22;9284;52.298;21.164;2022-10-13T19:04:21;5.40;52.00
18317;DHT22;9284;52.298;21.164;2022-10-13T19:06:54;5.40;42.20
18317;DHT22;9284;52.298;21.164;2022-10-13T19:09:23;5.40;82.80
18317;DHT22;9284;52.298;21.164;2022-10-13T19:11:54;5.30;86.50
18317;DHT22;9284;52.298;21.164;2022-10-13T19:14:22;5.40;94.50
18317;DHT22;9284;52.298;21.164;2022-10-13T19:16:52;5.30;99.90
18317;DHT22;9284;52.298;21.164;2022-10-13T19:19:27;5.30;99.90
18317;DHT22;9284;52.298;21.164;2022-10-13T19:21:58;5.30;99.90
18317;DHT22;9284;52.298;21.164;2022-10-13T19:24:26;5.30;99.90
18317;DHT22;9284;52.298;21.164;2022-10-13T19:26:54;5.30;99.90
18317;DHT22;9284;52.298;21.164;2022-10-13T19:29:23;5.30;99.90
18317;DHT22;9284;52.298;21.164;2022-10-13T19:31:51;5.30;99.90